createdAt,value
2018-08-03T00:00:37.241Z,2.83
2018-08-03T00:03:06.555Z,2.47
2018-08-03T00:05:37.056Z,2.40
2018-08-03T00:08:06.260Z,2.50
2018-08-03T00:10:35.467Z,2.40
2018-08-03T00:13:04.657Z,2.23
2018-08-03T00:15:33.762Z,2.53
2018-08-03T00:18:02.882Z,2.37
2018-08-03T00:20:32.062Z,2.20
2018-08-03T00:23:00.730Z,2.67
2018-08-03T00:25:29.858Z,2.37
2018-08-03T00:27:59.060Z,2.80
2018-08-03T00:30:28.256Z,2.83
2018-08-03T00:32:57.202Z,2.57
2018-08-03T00:35:26.335Z,2.63
2018-08-03T00:37:55.545Z,3.03
2018-08-03T00:40:24.199Z,2.33
2018-08-03T00:42:53.406Z,3.47
2018-08-03T00:45:22.749Z,2.87
2018-08-03T00:47:52.048Z,3.17
2018-08-03T00:50:21.145Z,2.33
2018-08-03T00:52:50.460Z,2.70
2018-08-03T00:55:19.692Z,2.80
2018-08-03T00:57:48.888Z,2.57
2018-08-03T01:00:18.046Z,2.60
2018-08-03T01:02:47.255Z,2.70
2018-08-03T01:05:15.853Z,2.60
2018-08-03T01:07:44.966Z,2.50
2018-08-03T01:10:14.030Z,3.20
2018-08-03T01:12:44.871Z,3.07
2018-08-03T01:15:14.438Z,2.33
2018-08-03T01:17:43.573Z,2.70
2018-08-03T01:20:12.670Z,2.70
2018-08-03T01:22:41.784Z,2.83
2018-08-03T01:25:10.878Z,2.63
2018-08-03T01:27:39.872Z,2.60
2018-08-03T01:30:08.963Z,2.57
2018-08-03T01:32:38.092Z,2.63
2018-08-03T01:35:07.289Z,2.40
2018-08-03T01:37:36.390Z,2.53
2018-08-03T01:40:06.358Z,2.70
2018-08-03T01:42:35.412Z,2.77
2018-08-03T01:45:04.710Z,2.50
2018-08-03T01:47:33.801Z,2.67
2018-08-03T01:50:03.012Z,2.83
2018-08-03T01:52:31.611Z,3.00
2018-08-03T01:55:00.590Z,3.40
2018-08-03T01:57:29.880Z,2.80
2018-08-03T01:59:59.001Z,3.07
2018-08-03T02:02:28.293Z,3.00
2018-08-03T02:04:57.512Z,3.47
2018-08-03T02:07:27.217Z,2.90
2018-08-03T02:09:55.910Z,2.63
2018-08-03T02:12:24.660Z,2.97
2018-08-03T02:14:53.799Z,3.03
2018-08-03T02:17:22.888Z,3.00
2018-08-03T02:19:52.110Z,2.80
2018-08-03T02:22:21.266Z,3.10
2018-08-03T02:24:50.380Z,3.13
2018-08-03T02:27:19.454Z,3.00
2018-08-03T02:29:48.687Z,3.43
2018-08-03T02:32:17.805Z,3.23
2018-08-03T02:34:46.915Z,3.30
2018-08-03T02:37:19.297Z,3.40
2018-08-03T02:39:48.384Z,3.40
2018-08-03T02:42:17.449Z,3.50
2018-08-03T02:44:46.646Z,3.50
2018-08-03T02:47:15.580Z,3.80
2018-08-03T02:49:44.767Z,3.50
2018-08-03T02:52:13.768Z,3.50
2018-08-03T02:54:42.984Z,3.77
2018-08-03T02:57:12.197Z,5.17
2018-08-03T02:59:40.854Z,4.00
2018-08-03T03:02:10.144Z,3.63
2018-08-03T03:04:39.462Z,3.87
2018-08-03T03:07:08.745Z,3.77
2018-08-03T03:09:39.205Z,4.33
2018-08-03T03:12:08.487Z,3.40
2018-08-03T03:14:37.741Z,3.43
2018-08-03T03:17:06.981Z,3.90
2018-08-03T03:19:36.384Z,3.47
2018-08-03T03:22:05.850Z,3.70
2018-08-03T03:24:35.147Z,3.37
2018-08-03T03:27:04.454Z,3.17
2018-08-03T03:29:33.517Z,3.50
2018-08-03T03:32:02.931Z,3.40
2018-08-03T03:34:32.022Z,4.60
2018-08-03T03:37:01.182Z,3.60
2018-08-03T03:39:30.321Z,3.83
2018-08-03T03:41:59.444Z,3.53
2018-08-03T03:44:28.614Z,3.93
2018-08-03T03:46:57.784Z,3.77
2018-08-03T03:49:26.945Z,4.13
2018-08-03T03:51:56.256Z,4.60
2018-08-03T03:54:25.394Z,3.60
2018-08-03T03:56:54.588Z,4.00
2018-08-03T03:59:23.743Z,4.53
2018-08-03T04:01:52.915Z,5.40
2018-08-03T04:04:22.172Z,4.00
2018-08-03T04:06:50.920Z,4.70
2018-08-03T04:09:20.127Z,4.43
2018-08-03T04:11:49.372Z,4.40
2018-08-03T04:14:18.337Z,4.20
2018-08-03T04:16:47.580Z,3.97
2018-08-03T04:19:16.677Z,4.57
2018-08-03T04:21:45.639Z,4.80
2018-08-03T04:24:14.809Z,4.37
2018-08-03T04:26:44.251Z,4.70
2018-08-03T04:29:13.462Z,4.67
2018-08-03T04:31:42.762Z,5.07
2018-08-03T04:34:11.978Z,5.07
2018-08-03T04:36:41.280Z,5.13
2018-08-03T04:39:10.475Z,4.97
2018-08-03T04:41:39.860Z,4.63
2018-08-03T04:44:09.173Z,4.80
2018-08-03T04:46:38.306Z,4.37
2018-08-03T04:49:08.716Z,4.70
2018-08-03T04:51:37.922Z,4.67
2018-08-03T04:54:07.209Z,5.20
2018-08-03T04:56:36.439Z,5.20
2018-08-03T04:59:05.632Z,4.80
2018-08-03T05:01:34.568Z,5.00
2018-08-03T05:04:03.820Z,4.70
2018-08-03T05:06:33.091Z,5.67
2018-08-03T05:09:02.485Z,5.23
2018-08-03T05:11:32.340Z,4.87
2018-08-03T05:14:01.617Z,5.47
2018-08-03T05:16:30.961Z,4.87
2018-08-03T05:19:00.243Z,5.40
2018-08-03T05:21:29.517Z,4.80
2018-08-03T05:23:58.754Z,5.10
2018-08-03T05:26:27.902Z,5.13
2018-08-03T05:28:56.961Z,5.33
2018-08-03T05:31:26.022Z,5.43
2018-08-03T05:33:55.343Z,4.73
2018-08-03T05:36:24.548Z,5.47
2018-08-03T05:38:53.680Z,5.53
2018-08-03T05:41:22.713Z,5.13
2018-08-03T05:43:51.986Z,6.03
2018-08-03T05:46:21.289Z,5.40
2018-08-03T05:48:50.581Z,7.50
2018-08-03T05:51:19.687Z,5.63
2018-08-03T05:53:48.886Z,6.10
2018-08-03T05:56:18.079Z,5.67
2018-08-03T05:58:47.465Z,7.10
2018-08-03T06:01:16.592Z,9.00
2018-08-03T06:03:45.700Z,7.80
2018-08-03T06:06:14.980Z,6.30
2018-08-03T06:08:44.297Z,6.60
2018-08-03T06:11:13.407Z,8.70
2018-08-03T06:13:44.247Z,6.73
2018-08-03T06:16:13.446Z,5.70
2018-08-03T06:18:42.757Z,6.07
2018-08-03T06:21:11.995Z,5.80
2018-08-03T06:23:42.075Z,5.53
2018-08-03T06:26:11.248Z,5.10
2018-08-03T06:28:40.637Z,5.67
2018-08-03T06:31:09.953Z,5.80
2018-08-03T06:33:40.094Z,6.50
2018-08-03T06:36:09.303Z,6.40
2018-08-03T06:38:37.902Z,6.20
2018-08-03T06:41:07.391Z,6.43
2018-08-03T06:43:36.705Z,6.33
2018-08-03T06:46:05.456Z,6.30
2018-08-03T06:48:34.758Z,5.67
2018-08-03T06:51:04.000Z,5.90
2018-08-03T06:53:33.167Z,5.00
2018-08-03T06:56:02.407Z,5.90
2018-08-03T06:58:31.594Z,7.07
2018-08-03T07:01:00.696Z,5.80
2018-08-03T07:03:29.987Z,6.10
2018-08-03T07:05:59.114Z,6.70
2018-08-03T07:08:28.231Z,6.37
2018-08-03T07:10:57.410Z,6.97
2018-08-03T07:13:26.112Z,7.30
2018-08-03T07:15:56.226Z,6.10
2018-08-03T07:18:24.981Z,7.43
2018-08-03T07:20:54.357Z,6.07
2018-08-03T07:23:23.596Z,6.07
2018-08-03T07:25:52.899Z,6.27
2018-08-03T07:28:22.105Z,6.20
2018-08-03T07:30:51.425Z,6.50
2018-08-03T07:33:20.613Z,6.40
2018-08-03T07:35:49.713Z,7.37
2018-08-03T07:38:18.923Z,7.60
2018-08-03T07:40:48.141Z,6.40
2018-08-03T07:43:17.440Z,6.77
2018-08-03T07:45:46.744Z,7.10
2018-08-03T07:48:16.149Z,7.00
2018-08-03T07:50:44.776Z,6.57
2018-08-03T07:53:14.018Z,7.13
2018-08-03T07:55:43.128Z,6.17
2018-08-03T07:58:12.134Z,6.27
2018-08-03T08:00:41.130Z,6.10
2018-08-03T08:03:10.281Z,7.13
2018-08-03T08:05:39.518Z,7.07
2018-08-03T08:08:08.536Z,8.37
2018-08-03T08:10:37.790Z,6.03
2018-08-03T08:13:07.239Z,5.83
2018-08-03T08:15:36.338Z,7.77
2018-08-03T08:18:05.696Z,7.33
2018-08-03T08:20:35.028Z,6.60
2018-08-03T08:23:05.368Z,7.80
2018-08-03T08:25:34.821Z,7.60
2018-08-03T08:28:04.217Z,7.70
2018-08-03T08:30:33.414Z,7.57
2018-08-03T08:33:02.602Z,6.73
2018-08-03T08:35:31.808Z,6.53
2018-08-03T08:38:00.909Z,6.53
2018-08-03T08:40:31.072Z,7.23
2018-08-03T08:43:00.247Z,6.77
2018-08-03T08:45:30.416Z,6.43
2018-08-03T08:47:59.516Z,6.67
2018-08-03T08:50:28.868Z,6.20
2018-08-03T08:52:58.364Z,6.63
2018-08-03T08:55:27.558Z,6.23
2018-08-03T08:57:57.832Z,6.03
2018-08-03T09:00:27.191Z,7.40
2018-08-03T09:02:56.570Z,6.80
2018-08-03T09:05:25.709Z,7.27
2018-08-03T09:07:54.951Z,6.03
2018-08-03T09:10:24.087Z,7.60
2018-08-03T09:12:53.464Z,6.57
2018-08-03T09:15:22.744Z,6.00
2018-08-03T09:17:53.220Z,7.27
2018-08-03T09:20:22.365Z,7.20
2018-08-03T09:22:51.673Z,7.00
2018-08-03T09:25:20.847Z,5.87
2018-08-03T09:27:50.062Z,6.40
2018-08-03T09:30:19.231Z,7.30
2018-08-03T09:32:48.363Z,6.57
2018-08-03T09:35:17.522Z,6.37
2018-08-03T09:37:46.723Z,7.03
2018-08-03T09:40:15.988Z,6.60
2018-08-03T09:42:45.245Z,7.10
2018-08-03T09:45:14.446Z,6.60
2018-08-03T09:47:43.577Z,6.20
2018-08-03T09:50:12.836Z,6.47
2018-08-03T09:52:42.141Z,5.93
2018-08-03T09:55:11.509Z,6.30
2018-08-03T09:57:40.667Z,5.73
2018-08-03T10:00:10.046Z,6.97
2018-08-03T10:02:39.364Z,6.13
2018-08-03T10:05:08.706Z,5.80
2018-08-03T10:07:37.897Z,6.17
2018-08-03T10:10:07.466Z,6.10
2018-08-03T10:12:36.784Z,6.30
2018-08-03T10:15:06.065Z,6.50
2018-08-03T10:17:35.529Z,6.53
2018-08-03T10:20:05.859Z,5.43
2018-08-03T10:22:34.532Z,5.27
2018-08-03T10:25:03.817Z,6.05
2018-08-03T10:27:33.156Z,5.80
2018-08-03T10:30:02.346Z,5.33
2018-08-03T10:32:31.730Z,5.53
2018-08-03T10:35:01.036Z,5.12
2018-08-03T10:37:30.156Z,5.45
2018-08-03T10:39:59.274Z,4.83
2018-08-03T10:42:28.383Z,5.45
2018-08-03T10:44:57.647Z,5.67
2018-08-03T10:47:26.859Z,5.22
2018-08-03T10:49:55.959Z,4.95
2018-08-03T10:52:25.172Z,5.20
2018-08-03T10:54:54.386Z,4.90
2018-08-03T10:57:23.471Z,4.90
2018-08-03T10:59:52.629Z,4.37
2018-08-03T11:02:21.864Z,5.30
2018-08-03T11:04:50.976Z,5.00
2018-08-03T11:07:19.772Z,5.50
2018-08-03T11:09:48.537Z,5.47
2018-08-03T11:12:17.761Z,5.25
2018-08-03T11:14:47.032Z,5.55
2018-08-03T11:17:16.188Z,5.25
2018-08-03T11:19:45.447Z,5.10
2018-08-03T11:22:14.790Z,5.10
2018-08-03T11:24:44.065Z,5.28
2018-08-03T11:27:13.403Z,5.42
2018-08-03T11:29:42.722Z,4.92
2018-08-03T11:32:12.018Z,5.20
2018-08-03T11:34:41.172Z,5.30
2018-08-03T11:37:10.271Z,5.25
2018-08-03T11:39:39.399Z,6.00
2018-08-03T11:42:07.987Z,5.15
2018-08-03T11:44:37.370Z,4.85
2018-08-03T11:47:06.793Z,5.20
2018-08-03T11:49:36.097Z,5.40
2018-08-03T11:52:05.323Z,4.60
2018-08-03T11:54:34.652Z,5.12
2018-08-03T11:57:03.966Z,5.00
2018-08-03T11:59:33.180Z,4.33
2018-08-03T12:02:02.516Z,5.70
2018-08-03T12:04:31.907Z,5.08
2018-08-03T12:07:01.219Z,5.25
2018-08-03T12:09:30.379Z,5.47
2018-08-03T12:11:59.539Z,4.90
2018-08-03T12:14:28.783Z,4.87
2018-08-03T12:16:58.097Z,5.35
2018-08-03T12:19:27.174Z,4.92
2018-08-03T12:21:57.887Z,4.75
2018-08-03T12:24:27.209Z,5.20
2018-08-03T12:26:56.645Z,5.03
2018-08-03T12:29:25.970Z,5.30
2018-08-03T12:31:55.175Z,5.15
2018-08-03T12:34:24.374Z,4.65
2018-08-03T12:36:53.782Z,5.47
2018-08-03T12:39:23.886Z,5.20
2018-08-03T12:41:53.110Z,4.87
2018-08-03T12:44:21.729Z,5.00
2018-08-03T12:46:51.060Z,4.97
2018-08-03T12:49:21.004Z,5.42
2018-08-03T12:51:50.299Z,5.00
2018-08-03T12:54:19.471Z,5.17
2018-08-03T12:56:48.732Z,5.47
2018-08-03T12:59:17.847Z,5.60
2018-08-03T13:01:47.026Z,4.87
2018-08-03T13:04:16.184Z,4.97
2018-08-03T13:06:46.073Z,4.67
2018-08-03T13:09:15.435Z,4.78
2018-08-03T13:11:44.841Z,5.78
2018-08-03T13:14:14.050Z,4.97
2018-08-03T13:16:43.266Z,5.20
2018-08-03T13:19:12.547Z,5.12
2018-08-03T13:21:42.713Z,5.00
2018-08-03T13:24:13.326Z,5.05
2018-08-03T13:26:42.027Z,4.87
2018-08-03T13:29:11.285Z,4.87
2018-08-03T13:31:40.411Z,4.75
2018-08-03T13:34:09.516Z,4.80
2018-08-03T13:36:38.712Z,4.75
2018-08-03T13:39:09.171Z,5.60
2018-08-03T13:41:38.657Z,5.45
2018-08-03T13:44:07.949Z,5.58
2018-08-03T13:46:37.565Z,5.28
2018-08-03T13:49:06.900Z,4.87
2018-08-03T13:51:36.365Z,5.03
2018-08-03T13:54:05.680Z,4.78
2018-08-03T13:56:34.707Z,4.97
2018-08-03T13:59:03.893Z,4.58
2018-08-03T14:01:45.788Z,4.58
2018-08-03T14:04:15.111Z,4.90
2018-08-03T14:06:44.394Z,5.07
2018-08-03T14:09:13.726Z,4.80
2018-08-03T14:11:43.089Z,4.53
2018-08-03T14:14:11.711Z,4.85
2018-08-03T14:16:40.955Z,5.07
2018-08-03T14:19:10.264Z,5.15
2018-08-03T14:21:39.492Z,4.78
2018-08-03T14:24:08.614Z,5.17
2018-08-03T14:26:37.966Z,4.87
2018-08-03T14:29:07.282Z,4.62
2018-08-03T14:31:36.513Z,4.83
2018-08-03T14:34:05.592Z,5.22
2018-08-03T14:36:34.734Z,5.20
2018-08-03T14:39:05.240Z,4.95
2018-08-03T14:41:34.671Z,4.66
2018-08-03T14:44:04.112Z,5.00
2018-08-03T14:46:33.330Z,4.97
2018-08-03T14:49:02.561Z,4.60
2018-08-03T14:51:31.921Z,5.00
2018-08-03T14:54:01.267Z,5.03
2018-08-03T14:56:30.655Z,4.75
2018-08-03T14:59:00.362Z,4.58
2018-08-03T15:01:29.589Z,4.62
2018-08-03T15:03:58.940Z,4.80
2018-08-03T15:06:28.285Z,4.50
2018-08-03T15:08:57.553Z,4.67
2018-08-03T15:11:26.657Z,4.60
2018-08-03T15:13:55.930Z,4.33
2018-08-03T15:16:25.184Z,8.15
2018-08-03T15:18:54.511Z,4.67
2018-08-03T15:21:23.830Z,4.65
2018-08-03T15:23:53.175Z,4.87
2018-08-03T15:26:24.462Z,4.72
2018-08-03T15:28:53.895Z,4.35
2018-08-03T15:31:23.202Z,4.85
2018-08-03T15:33:52.441Z,4.90
2018-08-03T15:36:21.768Z,4.62
2018-08-03T15:38:51.036Z,4.80
2018-08-03T15:41:20.121Z,4.70
2018-08-03T15:43:49.276Z,4.58
2018-08-03T15:46:18.785Z,4.35
2018-08-03T15:48:47.996Z,4.40
2018-08-03T15:51:17.196Z,4.25
2018-08-03T15:53:46.296Z,4.55
2018-08-03T15:56:14.984Z,4.97
2018-08-03T15:58:44.367Z,4.70
2018-08-03T16:01:13.600Z,4.53
2018-08-03T16:03:42.925Z,4.47
2018-08-03T16:06:12.168Z,4.75
2018-08-03T16:08:41.485Z,4.87
2018-08-03T16:11:10.729Z,4.53
2018-08-03T16:13:39.974Z,4.45
2018-08-03T16:16:09.738Z,4.65
2018-08-03T16:18:38.864Z,4.53
2018-08-03T16:21:07.706Z,4.87
2018-08-03T16:23:36.905Z,4.53
2018-08-03T16:26:06.262Z,5.20
2018-08-03T16:28:37.200Z,4.83
2018-08-03T16:31:06.454Z,4.67
2018-08-03T16:33:35.778Z,5.05
2018-08-03T16:36:04.469Z,5.30
2018-08-03T16:38:33.766Z,4.47
2018-08-03T16:41:03.145Z,4.20
2018-08-03T16:43:32.474Z,5.35
2018-08-03T16:46:01.755Z,4.80
2018-08-03T16:48:30.977Z,4.30
2018-08-03T16:51:00.803Z,4.42
2018-08-03T16:53:29.815Z,4.87
2018-08-03T16:55:58.710Z,4.53
2018-08-03T16:58:27.674Z,4.40
2018-08-03T17:00:57.162Z,4.60
2018-08-03T17:03:26.300Z,4.50
2018-08-03T17:05:55.504Z,4.42
2018-08-03T17:08:24.693Z,4.67
2018-08-03T17:10:53.772Z,4.75
2018-08-03T17:13:22.904Z,4.70
2018-08-03T17:15:52.050Z,4.20
2018-08-03T17:18:21.191Z,4.30
2018-08-03T17:20:50.253Z,4.53
2018-08-03T17:23:19.558Z,4.42
2018-08-03T17:25:48.768Z,4.72
2018-08-03T17:28:17.821Z,4.80
2018-08-03T17:30:48.242Z,4.60
2018-08-03T17:33:17.521Z,4.57
2018-08-03T17:35:46.801Z,4.63
2018-08-03T17:38:15.927Z,4.77
2018-08-03T17:40:45.374Z,4.47
2018-08-03T17:43:14.756Z,4.43
2018-08-03T17:45:44.123Z,4.10
2018-08-03T17:48:13.348Z,4.90
2018-08-03T17:50:42.564Z,4.80
2018-08-03T17:53:11.777Z,4.90
2018-08-03T17:55:40.932Z,4.20
2018-08-03T17:58:10.046Z,4.60
2018-08-03T18:00:39.237Z,3.73
2018-08-03T18:03:08.334Z,4.23
2018-08-03T18:05:37.447Z,4.20
2018-08-03T18:08:06.728Z,4.17
2018-08-03T18:10:36.034Z,4.10
2018-08-03T18:13:05.438Z,4.80
2018-08-03T18:15:34.579Z,4.50
2018-08-03T18:18:03.809Z,4.30
2018-08-03T18:20:33.181Z,4.47
2018-08-03T18:23:02.484Z,3.97
2018-08-03T18:25:31.794Z,4.10
2018-08-03T18:28:00.913Z,4.80
2018-08-03T18:30:30.107Z,4.27
2018-08-03T18:32:59.298Z,4.00
2018-08-03T18:35:28.390Z,4.50
2018-08-03T18:37:57.707Z,4.07
2018-08-03T18:40:27.221Z,4.10
2018-08-03T18:42:56.701Z,3.73
2018-08-03T18:45:25.986Z,4.30
2018-08-03T18:47:55.298Z,4.50
2018-08-03T18:50:24.445Z,4.10
2018-08-03T18:52:53.598Z,4.07
2018-08-03T18:55:22.843Z,3.70
2018-08-03T18:57:51.516Z,4.20
2018-08-03T19:00:20.687Z,4.23
2018-08-03T19:02:49.855Z,4.17
2018-08-03T19:05:19.192Z,4.43
2018-08-03T19:07:48.352Z,3.90
2018-08-03T19:10:17.583Z,4.27
2018-08-03T19:12:46.818Z,4.17
2018-08-03T19:15:16.230Z,4.43
2018-08-03T19:17:45.440Z,4.07
2018-08-03T19:20:14.833Z,3.87
2018-08-03T19:22:44.141Z,4.17
2018-08-03T19:25:13.526Z,3.90
2018-08-03T19:27:42.698Z,4.00
2018-08-03T19:30:11.941Z,3.87
2018-08-03T19:32:42.688Z,4.23
2018-08-03T19:35:12.123Z,4.13
2018-08-03T19:37:41.305Z,3.60
2018-08-03T19:40:10.593Z,4.27
2018-08-03T19:42:39.802Z,3.90
2018-08-03T19:45:10.001Z,4.10
2018-08-03T19:47:39.632Z,3.90
2018-08-03T19:50:09.788Z,3.97
2018-08-03T19:52:38.856Z,4.03
2018-08-03T19:55:07.483Z,3.77
2018-08-03T19:57:36.725Z,3.87
2018-08-03T20:00:07.898Z,4.10
2018-08-03T20:02:37.203Z,4.10
2018-08-03T20:05:06.710Z,3.97
2018-08-03T20:07:35.836Z,3.83
2018-08-03T20:10:05.506Z,3.97
2018-08-03T20:12:34.717Z,4.20
2018-08-03T20:15:04.552Z,4.40
2018-08-03T20:17:33.642Z,4.17
2018-08-03T20:20:02.451Z,4.60
2018-08-03T20:22:31.870Z,3.70
2018-08-03T20:25:01.189Z,3.97
2018-08-03T20:27:30.456Z,3.57
2018-08-03T20:29:59.659Z,4.10
2018-08-03T20:32:28.641Z,3.60
2018-08-03T20:34:58.763Z,4.27
2018-08-03T20:37:28.224Z,3.80
2018-08-03T20:39:57.444Z,4.07
2018-08-03T20:42:26.674Z,4.37
2018-08-03T20:44:55.847Z,3.77
2018-08-03T20:47:24.977Z,3.90
2018-08-03T20:49:54.249Z,4.40
2018-08-03T20:52:23.387Z,3.73
2018-08-03T20:54:52.703Z,3.57
2018-08-03T20:57:21.900Z,4.10
2018-08-03T20:59:51.000Z,3.77
2018-08-03T21:02:20.373Z,4.17
2018-08-03T21:04:49.606Z,3.57
2018-08-03T21:07:18.993Z,3.60
2018-08-03T21:09:48.011Z,4.20
2018-08-03T21:12:17.231Z,3.23
2018-08-03T21:14:46.495Z,3.93
2018-08-03T21:17:15.714Z,4.20
2018-08-03T21:19:44.874Z,3.57
2018-08-03T21:22:14.089Z,3.63
2018-08-03T21:24:43.010Z,3.60
2018-08-03T21:27:12.177Z,3.60
2018-08-03T21:29:41.383Z,3.83
2018-08-03T21:32:10.216Z,3.60
2018-08-03T21:34:39.065Z,3.30
2018-08-03T21:37:08.186Z,4.10
2018-08-03T21:39:37.807Z,3.30
2018-08-03T21:42:07.169Z,3.77
2018-08-03T21:44:36.418Z,3.23
2018-08-03T21:47:05.687Z,3.40
2018-08-03T21:49:34.806Z,3.70
2018-08-03T21:52:03.987Z,3.63
2018-08-03T21:54:33.104Z,3.70
2018-08-03T21:57:02.401Z,2.93
2018-08-03T21:59:31.690Z,3.80
2018-08-03T22:02:00.904Z,3.53
2018-08-03T22:04:30.124Z,3.20
2018-08-03T22:06:59.324Z,3.30
2018-08-03T22:09:28.606Z,3.70
2018-08-03T22:11:57.862Z,3.40
2018-08-03T22:14:27.213Z,3.37
2018-08-03T22:16:56.551Z,3.37
2018-08-03T22:19:25.651Z,3.10
2018-08-03T22:21:54.446Z,3.80
2018-08-03T22:24:23.762Z,3.50
2018-08-03T22:26:53.112Z,3.30
2018-08-03T22:29:22.425Z,2.97
2018-08-03T22:31:51.816Z,3.07
2018-08-03T22:34:21.028Z,3.43
2018-08-03T22:36:51.276Z,2.93
2018-08-03T22:39:20.583Z,3.20
2018-08-03T22:41:49.827Z,3.10
2018-08-03T22:44:19.057Z,3.13
2018-08-03T22:46:48.303Z,3.17
2018-08-03T22:49:17.455Z,3.13
2018-08-03T22:51:46.707Z,3.50
2018-08-03T22:54:15.789Z,2.93
2018-08-03T22:56:45.086Z,3.10
2018-08-03T22:59:14.194Z,3.33
2018-08-03T23:01:43.373Z,3.50
2018-08-03T23:04:12.597Z,2.90
2018-08-03T23:06:41.701Z,3.13
2018-08-03T23:09:10.846Z,3.10
2018-08-03T23:11:40.024Z,3.50
2018-08-03T23:14:09.112Z,3.00
2018-08-03T23:16:37.728Z,2.90
2018-08-03T23:19:06.968Z,3.17
2018-08-03T23:21:36.173Z,2.90
2018-08-03T23:24:05.466Z,3.17
2018-08-03T23:26:34.711Z,3.17
2018-08-03T23:29:03.777Z,2.93
2018-08-03T23:31:33.108Z,3.23
2018-08-03T23:34:02.318Z,3.43
2018-08-03T23:36:31.534Z,3.10
2018-08-03T23:39:01.951Z,2.90
2018-08-03T23:41:30.568Z,3.33
2018-08-03T23:43:59.868Z,3.27
2018-08-03T23:46:29.067Z,3.07
2018-08-03T23:48:58.315Z,2.73
2018-08-03T23:51:27.570Z,3.00
2018-08-03T23:53:56.946Z,2.80
2018-08-03T23:56:26.116Z,3.47
2018-08-03T23:58:55.454Z,2.80
